sensor_id;sensor_type;location;lat;lon;timestamp;temperature;humidity
28614;DHT22;15806;53.548;9.964;2022-09-20T00:00:48;14.50;99.90
28614;DHT22;15806;53.548;9.964;2022-09-20T00:02:29;14.50;99.90
28614;DHT22;15806;53.548;9.964;2022-09-20T00:04:09;14.50;99.90
28614;DHT22;15806;53.548;9.964;2022-09-20T00:05:50;14.50;99.90
28614;DHT22;15806;53.548;9.964;2022-09-20T00:07:30;14.40;99.90
28614;DHT22;15806;53.548;9.964;2022-09-20T00:09:11;14.40;99.90
28614;DHT22;15806;53.548;9.964;2022-09-20T00:10:56;14.40;99.90
28614;DHT22;15806;53.548;9.964;2022-09-20T00:12:37;14.40;99.90
28614;DHT22;15806;53.548;9.964;2022-09-20T00:14:17;14.40;99.90
28614;DHT22;15806;53.548;9.964;2022-09-20T00:15:58;14.40;99.90
28614;DHT22;15806;53.548;9.964;2022-09-20T00:17:39;14.40;99.90
28614;DHT22;15806;53.548;9.964;2022-09-20T00:19:20;14.40;99.90
28614;DHT22;15806;53.548;9.964;2022-09-20T00:21:02;14.40;99.90
28614;DHT22;15806;53.548;9.964;2022-09-20T00:22:43;14.40;99.90
28614;DHT22;15806;53.548;9.964;2022-09-20T00:24:23;14.40;99.90
28614;DHT22;15806;53.548;9.964;2022-09-20T00:26:04;14.40;99.90
28614;DHT22;15806;53.548;9.964;2022-09-20T00:27:45;14.40;99.90
28614;DHT22;15806;53.548;9.964;2022-09-20T00:29:25;14.40;99.90
28614;DHT22;15806;53.548;9.964;2022-09-20T00:31:06;14.40;99.90
28614;DHT22;15806;53.548;9.964;2022-09-20T00:32:47;14.40;99.90
28614;DHT22;15806;53.548;9.964;2022-09-20T00:34:27;14.40;99.90
28614;DHT22;15806;53.548;9.964;2022-09-20T00:36:08;14.40;99.90
28614;DHT22;15806;53.548;9.964;2022-09-20T00:37:48;14.40;99.90
28614;DHT22;15806;53.548;9.964;2022-09-20T00:39:29;14.40;99.90
28614;DHT22;15806;53.548;9.964;2022-09-20T00:41:10;14.40;99.90
28614;DHT22;15806;53.548;9.964;2022-09-20T00:42:50;14.50;99.90
28614;DHT22;15806;53.548;9.964;2022-09-20T00:46:41;14.50;99.90
28614;DHT22;15806;53.548;9.964;2022-09-20T00:48:27;14.50;99.90
28614;DHT22;15806;53.548;9.964;2022-09-20T00:50:26;14.50;99.90
28614;DHT22;15806;53.548;9.964;2022-09-20T00:52:08;14.50;99.90
28614;DHT22;15806;53.548;9.964;2022-09-20T00:53:49;14.50;99.90
28614;DHT22;15806;53.548;9.964;2022-09-20T00:55:32;14.50;99.90
28614;DHT22;15806;53.548;9.964;2022-09-20T00:57:13;14.50;99.90
28614;DHT22;15806;53.548;9.964;2022-09-20T01:00:41;14.60;99.90
28614;DHT22;15806;53.548;9.964;2022-09-20T01:02:26;14.60;99.90
28614;DHT22;15806;53.548;9.964;2022-09-20T01:04:08;14.70;99.90
28614;DHT22;15806;53.548;9.964;2022-09-20T01:05:50;14.70;99.90
28614;DHT22;15806;53.548;9.964;2022-09-20T01:07:31;14.70;99.90
28614;DHT22;15806;53.548;9.964;2022-09-20T01:09:11;14.70;99.90
28614;DHT22;15806;53.548;9.964;2022-09-20T01:10:52;14.70;99.90
28614;DHT22;15806;53.548;9.964;2022-09-20T01:12:34;14.80;99.90
28614;DHT22;15806;53.548;9.964;2022-09-20T01:14:16;14.80;99.90
28614;DHT22;15806;53.548;9.964;2022-09-20T01:15:58;14.80;99.90
28614;DHT22;15806;53.548;9.964;2022-09-20T01:17:47;14.80;99.90
28614;DHT22;15806;53.548;9.964;2022-09-20T01:19:37;14.80;99.90
28614;DHT22;15806;53.548;9.964;2022-09-20T01:21:19;14.80;99.90
28614;DHT22;15806;53.548;9.964;2022-09-20T01:23:20;14.90;99.90
28614;DHT22;15806;53.548;9.964;2022-09-20T01:25:14;14.90;99.90
28614;DHT22;15806;53.548;9.964;2022-09-20T01:27:22;15.00;99.90
28614;DHT22;15806;53.548;9.964;2022-09-20T01:31:25;15.00;99.90
28614;DHT22;15806;53.548;9.964;2022-09-20T01:33:19;15.00;99.90
28614;DHT22;15806;53.548;9.964;2022-09-20T01:35:03;15.10;99.90
28614;DHT22;15806;53.548;9.964;2022-09-20T01:37:00;15.00;99.90
28614;DHT22;15806;53.548;9.964;2022-09-20T01:41:00;15.10;99.90
28614;DHT22;15806;53.548;9.964;2022-09-20T01:43:05;15.10;99.90
28614;DHT22;15806;53.548;9.964;2022-09-20T01:46:42;15.10;99.90
28614;DHT22;15806;53.548;9.964;2022-09-20T01:48:33;15.10;99.90
28614;DHT22;15806;53.548;9.964;2022-09-20T02:00:18;15.10;99.90
28614;DHT22;15806;53.548;9.964;2022-09-20T02:04:17;15.10;99.90
28614;DHT22;15806;53.548;9.964;2022-09-20T02:08:21;15.10;99.90
28614;DHT22;15806;53.548;9.964;2022-09-20T02:12:30;15.10;99.90
28614;DHT22;15806;53.548;9.964;2022-09-20T02:20:59;15.00;99.90
28614;DHT22;15806;53.548;9.964;2022-09-20T02:23:11;15.00;99.90
28614;DHT22;15806;53.548;9.964;2022-09-20T02:33:29;15.00;99.90
28614;DHT22;15806;53.548;9.964;2022-09-20T02:39:25;15.10;99.90
28614;DHT22;15806;53.548;9.964;2022-09-20T02:45:51;15.10;99.90
28614;DHT22;15806;53.548;9.964;2022-09-20T02:47:42;15.10;99.90
28614;DHT22;15806;53.548;9.964;2022-09-20T02:51:39;15.10;99.90
28614;DHT22;15806;53.548;9.964;2022-09-20T02:58:29;15.00;99.90
28614;DHT22;15806;53.548;9.964;2022-09-20T03:00:27;15.00;99.90
28614;DHT22;15806;53.548;9.964;2022-09-20T03:02:21;15.00;99.90
28614;DHT22;15806;53.548;9.964;2022-09-20T03:06:32;15.00;99.90
28614;DHT22;15806;53.548;9.964;2022-09-20T03:10:24;14.90;99.90
28614;DHT22;15806;53.548;9.964;2022-09-20T03:12:28;14.90;99.90
28614;DHT22;15806;53.548;9.964;2022-09-20T03:14:25;15.00;99.90
28614;DHT22;15806;53.548;9.964;2022-09-20T03:18:27;14.90;99.90
28614;DHT22;15806;53.548;9.964;2022-09-20T03:20:30;14.90;99.90
28614;DHT22;15806;53.548;9.964;2022-09-20T03:22:43;14.80;99.90
28614;DHT22;15806;53.548;9.964;2022-09-20T03:26:22;14.90;99.90
28614;DHT22;15806;53.548;9.964;2022-09-20T03:34:17;14.80;99.90
28614;DHT22;15806;53.548;9.964;2022-09-20T03:42:25;14.70;99.90
28614;DHT22;15806;53.548;9.964;2022-09-20T03:46:45;14.60;99.90
28614;DHT22;15806;53.548;9.964;2022-09-20T03:48:57;14.60;99.90
28614;DHT22;15806;53.548;9.964;2022-09-20T03:51:03;14.60;99.90
28614;DHT22;15806;53.548;9.964;2022-09-20T03:57:14;14.50;99.90
28614;DHT22;15806;53.548;9.964;2022-09-20T03:59:35;14.50;99.90
28614;DHT22;15806;53.548;9.964;2022-09-20T04:03:27;14.50;99.90
28614;DHT22;15806;53.548;9.964;2022-09-20T04:05:17;14.40;99.90
28614;DHT22;15806;53.548;9.964;2022-09-20T04:07:07;14.40;99.90
28614;DHT22;15806;53.548;9.964;2022-09-20T04:09:08;14.40;99.90
28614;DHT22;15806;53.548;9.964;2022-09-20T04:19:13;14.30;99.90
28614;DHT22;15806;53.548;9.964;2022-09-20T04:21:01;14.20;99.90
28614;DHT22;15806;53.548;9.964;2022-09-20T04:22:46;14.20;99.90
28614;DHT22;15806;53.548;9.964;2022-09-20T04:26:34;14.10;99.90
28614;DHT22;15806;53.548;9.964;2022-09-20T04:28:24;14.10;99.90
28614;DHT22;15806;53.548;9.964;2022-09-20T04:31:59;14.10;99.90
28614;DHT22;15806;53.548;9.964;2022-09-20T04:33:44;14.10;99.90
28614;DHT22;15806;53.548;9.964;2022-09-20T04:37:34;14.20;99.90
28614;DHT22;15806;53.548;9.964;2022-09-20T04:55:53;14.00;99.90
28614;DHT22;15806;53.548;9.964;2022-09-20T05:14:15;13.90;99.90
28614;DHT22;15806;53.548;9.964;2022-09-20T05:16:01;14.00;99.90
28614;DHT22;15806;53.548;9.964;2022-09-20T05:30:44;13.90;99.90
28614;DHT22;15806;53.548;9.964;2022-09-20T05:34:41;13.90;99.90
28614;DHT22;15806;53.548;9.964;2022-09-20T05:40:46;13.90;99.90
28614;DHT22;15806;53.548;9.964;2022-09-20T05:47:10;14.00;99.90
28614;DHT22;15806;53.548;9.964;2022-09-20T05:52:56;14.10;99.90
28614;DHT22;15806;53.548;9.964;2022-09-20T06:01:36;14.20;99.90
28614;DHT22;15806;53.548;9.964;2022-09-20T06:05:14;14.30;99.90
28614;DHT22;15806;53.548;9.964;2022-09-20T06:08:48;14.30;99.90
28614;DHT22;15806;53.548;9.964;2022-09-20T06:12:52;14.30;99.90
28614;DHT22;15806;53.548;9.964;2022-09-20T06:14:59;14.40;99.90
28614;DHT22;15806;53.548;9.964;2022-09-20T06:17:44;14.40;99.90
28614;DHT22;15806;53.548;9.964;2022-09-20T06:21:21;14.40;99.90
28614;DHT22;15806;53.548;9.964;2022-09-20T06:23:04;14.40;99.90
28614;DHT22;15806;53.548;9.964;2022-09-20T06:24:57;14.50;99.90
28614;DHT22;15806;53.548;9.964;2022-09-20T06:26:40;14.50;99.90
28614;DHT22;15806;53.548;9.964;2022-09-20T06:30:39;14.70;99.90
28614;DHT22;15806;53.548;9.964;2022-09-20T06:32:21;15.50;99.90
28614;DHT22;15806;53.548;9.964;2022-09-20T06:34:12;16.10;99.90
28614;DHT22;15806;53.548;9.964;2022-09-20T06:36:03;16.80;99.90
28614;DHT22;15806;53.548;9.964;2022-09-20T06:41:59;17.40;99.90
28614;DHT22;15806;53.548;9.964;2022-09-20T06:43:39;17.10;99.90
28614;DHT22;15806;53.548;9.964;2022-09-20T06:45:20;16.90;99.90
28614;DHT22;15806;53.548;9.964;2022-09-20T06:47:01;16.80;99.90
28614;DHT22;15806;53.548;9.964;2022-09-20T06:48:41;17.10;99.90
28614;DHT22;15806;53.548;9.964;2022-09-20T06:50:22;17.10;99.90
28614;DHT22;15806;53.548;9.964;2022-09-20T06:52:04;16.60;99.90
28614;DHT22;15806;53.548;9.964;2022-09-20T06:53:45;16.40;99.90
28614;DHT22;15806;53.548;9.964;2022-09-20T06:55:29;15.70;99.90
28614;DHT22;15806;53.548;9.964;2022-09-20T06:57:21;14.90;99.90
28614;DHT22;15806;53.548;9.964;2022-09-20T06:59:03;14.20;99.90
28614;DHT22;15806;53.548;9.964;2022-09-20T07:00:44;13.90;99.90
28614;DHT22;15806;53.548;9.964;2022-09-20T07:02:25;13.60;99.90
28614;DHT22;15806;53.548;9.964;2022-09-20T07:04:05;13.40;99.90
28614;DHT22;15806;53.548;9.964;2022-09-20T07:05:46;13.20;99.90
28614;DHT22;15806;53.548;9.964;2022-09-20T07:07:26;13.10;99.90
28614;DHT22;15806;53.548;9.964;2022-09-20T07:09:09;13.10;99.90
28614;DHT22;15806;53.548;9.964;2022-09-20T07:10:50;13.00;99.90
28614;DHT22;15806;53.548;9.964;2022-09-20T07:12:31;12.90;99.90
28614;DHT22;15806;53.548;9.964;2022-09-20T07:14:11;12.90;99.90
28614;DHT22;15806;53.548;9.964;2022-09-20T07:15:59;12.90;99.90
28614;DHT22;15806;53.548;9.964;2022-09-20T07:17:43;12.90;99.90
28614;DHT22;15806;53.548;9.964;2022-09-20T07:19:24;12.90;99.90
28614;DHT22;15806;53.548;9.964;2022-09-20T07:21:05;13.00;99.90
28614;DHT22;15806;53.548;9.964;2022-09-20T07:22:46;13.00;99.90
28614;DHT22;15806;53.548;9.964;2022-09-20T07:24:27;13.10;99.90
28614;DHT22;15806;53.548;9.964;2022-09-20T07:26:21;13.20;99.90
28614;DHT22;15806;53.548;9.964;2022-09-20T07:28:02;13.30;99.90
28614;DHT22;15806;53.548;9.964;2022-09-20T07:29:42;13.50;99.90
28614;DHT22;15806;53.548;9.964;2022-09-20T07:31:25;13.70;99.90
28614;DHT22;15806;53.548;9.964;2022-09-20T07:33:05;13.70;99.90
28614;DHT22;15806;53.548;9.964;2022-09-20T07:34:46;13.60;99.90
28614;DHT22;15806;53.548;9.964;2022-09-20T07:36:26;13.50;99.90
28614;DHT22;15806;53.548;9.964;2022-09-20T07:38:07;13.40;99.90
28614;DHT22;15806;53.548;9.964;2022-09-20T07:39:47;13.50;99.90
28614;DHT22;15806;53.548;9.964;2022-09-20T07:41:28;13.70;99.90
28614;DHT22;15806;53.548;9.964;2022-09-20T07:43:08;13.80;99.90
28614;DHT22;15806;53.548;9.964;2022-09-20T07:44:49;13.80;99.90
28614;DHT22;15806;53.548;9.964;2022-09-20T07:46:29;13.70;99.90
28614;DHT22;15806;53.548;9.964;2022-09-20T07:48:10;13.50;99.90
28614;DHT22;15806;53.548;9.964;2022-09-20T07:49:51;13.60;99.90
28614;DHT22;15806;53.548;9.964;2022-09-20T07:51:31;13.80;99.90
28614;DHT22;15806;53.548;9.964;2022-09-20T07:53:12;14.00;99.90
28614;DHT22;15806;53.548;9.964;2022-09-20T07:54:52;14.10;99.90
28614;DHT22;15806;53.548;9.964;2022-09-20T07:56:33;14.10;99.90
28614;DHT22;15806;53.548;9.964;2022-09-20T07:58:13;14.20;99.90
28614;DHT22;15806;53.548;9.964;2022-09-20T07:59:54;14.30;99.90
28614;DHT22;15806;53.548;9.964;2022-09-20T08:01:35;14.40;99.90
28614;DHT22;15806;53.548;9.964;2022-09-20T08:03:16;14.40;99.90
28614;DHT22;15806;53.548;9.964;2022-09-20T08:04:56;14.20;99.90
28614;DHT22;15806;53.548;9.964;2022-09-20T08:06:38;13.90;99.90
28614;DHT22;15806;53.548;9.964;2022-09-20T08:08:20;14.00;99.90
28614;DHT22;15806;53.548;9.964;2022-09-20T08:10:00;14.10;99.90
28614;DHT22;15806;53.548;9.964;2022-09-20T08:11:41;14.30;99.90
28614;DHT22;15806;53.548;9.964;2022-09-20T08:13:22;14.30;99.90
28614;DHT22;15806;53.548;9.964;2022-09-20T08:15:03;14.20;99.90
28614;DHT22;15806;53.548;9.964;2022-09-20T08:16:46;14.10;99.90
28614;DHT22;15806;53.548;9.964;2022-09-20T08:18:27;14.40;99.90
28614;DHT22;15806;53.548;9.964;2022-09-20T08:20:07;14.40;99.90
28614;DHT22;15806;53.548;9.964;2022-09-20T08:21:49;14.40;99.90
28614;DHT22;15806;53.548;9.964;2022-09-20T08:23:34;14.40;99.90
28614;DHT22;15806;53.548;9.964;2022-09-20T08:25:14;14.40;99.90
28614;DHT22;15806;53.548;9.964;2022-09-20T08:26:55;14.30;99.90
28614;DHT22;15806;53.548;9.964;2022-09-20T08:28:35;14.40;99.90
28614;DHT22;15806;53.548;9.964;2022-09-20T08:30:16;14.40;99.90
28614;DHT22;15806;53.548;9.964;2022-09-20T08:31:56;14.50;99.90
28614;DHT22;15806;53.548;9.964;2022-09-20T08:33:37;14.60;99.90
28614;DHT22;15806;53.548;9.964;2022-09-20T08:35:17;14.50;99.90
28614;DHT22;15806;53.548;9.964;2022-09-20T08:36:58;14.60;99.90
28614;DHT22;15806;53.548;9.964;2022-09-20T08:38:38;14.70;99.90
28614;DHT22;15806;53.548;9.964;2022-09-20T08:40:20;14.80;99.90
28614;DHT22;15806;53.548;9.964;2022-09-20T08:44:03;14.80;99.90
28614;DHT22;15806;53.548;9.964;2022-09-20T08:45:45;14.70;99.90
28614;DHT22;15806;53.548;9.964;2022-09-20T08:47:30;14.60;99.90
28614;DHT22;15806;53.548;9.964;2022-09-20T08:49:25;14.60;99.90
28614;DHT22;15806;53.548;9.964;2022-09-20T08:51:10;14.70;99.90
28614;DHT22;15806;53.548;9.964;2022-09-20T08:52:54;14.80;99.90
28614;DHT22;15806;53.548;9.964;2022-09-20T08:54:36;14.80;99.90
28614;DHT22;15806;53.548;9.964;2022-09-20T08:56:18;14.80;99.90
28614;DHT22;15806;53.548;9.964;2022-09-20T08:57:59;14.90;99.90
28614;DHT22;15806;53.548;9.964;2022-09-20T08:59:42;15.10;99.90
28614;DHT22;15806;53.548;9.964;2022-09-20T09:01:25;15.10;99.90
28614;DHT22;15806;53.548;9.964;2022-09-20T09:03:11;14.90;99.90
28614;DHT22;15806;53.548;9.964;2022-09-20T09:04:52;14.70;99.90
28614;DHT22;15806;53.548;9.964;2022-09-20T09:06:32;15.00;99.90
28614;DHT22;15806;53.548;9.964;2022-09-20T09:08:22;15.30;99.90
28614;DHT22;15806;53.548;9.964;2022-09-20T09:10:03;15.50;99.90
28614;DHT22;15806;53.548;9.964;2022-09-20T09:11:45;15.50;99.90
28614;DHT22;15806;53.548;9.964;2022-09-20T09:13:33;15.30;99.90
28614;DHT22;15806;53.548;9.964;2022-09-20T09:15:26;15.30;99.90
28614;DHT22;15806;53.548;9.964;2022-09-20T09:17:10;15.30;99.90
28614;DHT22;15806;53.548;9.964;2022-09-20T09:18:51;15.20;99.90
28614;DHT22;15806;53.548;9.964;2022-09-20T09:20:39;15.30;99.90
28614;DHT22;15806;53.548;9.964;2022-09-20T09:22:30;15.40;99.90
28614;DHT22;15806;53.548;9.964;2022-09-20T09:24:19;15.40;99.90
28614;DHT22;15806;53.548;9.964;2022-09-20T09:26:03;15.50;99.90
28614;DHT22;15806;53.548;9.964;2022-09-20T09:27:57;15.20;99.90
28614;DHT22;15806;53.548;9.964;2022-09-20T09:29:48;15.10;99.90
28614;DHT22;15806;53.548;9.964;2022-09-20T09:31:29;15.20;99.90
28614;DHT22;15806;53.548;9.964;2022-09-20T09:35:24;15.10;99.90
28614;DHT22;15806;53.548;9.964;2022-09-20T09:37:08;15.20;99.90
28614;DHT22;15806;53.548;9.964;2022-09-20T09:41:05;15.80;99.90
28614;DHT22;15806;53.548;9.964;2022-09-20T09:43:09;16.00;99.90
28614;DHT22;15806;53.548;9.964;2022-09-20T09:45:12;16.00;99.90
28614;DHT22;15806;53.548;9.964;2022-09-20T09:47:02;15.70;99.90
28614;DHT22;15806;53.548;9.964;2022-09-20T09:48:43;15.50;99.90
28614;DHT22;15806;53.548;9.964;2022-09-20T09:50:32;15.30;99.90
28614;DHT22;15806;53.548;9.964;2022-09-20T09:52:15;15.10;99.90
28614;DHT22;15806;53.548;9.964;2022-09-20T09:53:56;15.00;99.90
28614;DHT22;15806;53.548;9.964;2022-09-20T10:01:32;14.60;99.90
28614;DHT22;15806;53.548;9.964;2022-09-20T10:03:57;14.70;99.90
28614;DHT22;15806;53.548;9.964;2022-09-20T10:08:05;15.00;99.90
28614;DHT22;15806;53.548;9.964;2022-09-20T10:10:01;15.10;99.90
28614;DHT22;15806;53.548;9.964;2022-09-20T10:16:46;15.50;99.90
28614;DHT22;15806;53.548;9.964;2022-09-20T10:18:53;15.40;99.90
28614;DHT22;15806;53.548;9.964;2022-09-20T10:28:26;15.50;99.90
28614;DHT22;15806;53.548;9.964;2022-09-20T10:30:16;15.20;99.90
28614;DHT22;15806;53.548;9.964;2022-09-20T10:38:16;14.80;99.90
28614;DHT22;15806;53.548;9.964;2022-09-20T10:42:24;15.10;99.90
28614;DHT22;15806;53.548;9.964;2022-09-20T10:48:31;15.70;99.90
28614;DHT22;15806;53.548;9.964;2022-09-20T10:54:07;15.80;99.90
28614;DHT22;15806;53.548;9.964;2022-09-20T10:59:47;15.90;99.90
28614;DHT22;15806;53.548;9.964;2022-09-20T11:01:59;15.80;99.90
28614;DHT22;15806;53.548;9.964;2022-09-20T11:08:58;16.10;99.90
28614;DHT22;15806;53.548;9.964;2022-09-20T11:10:50;16.20;99.90
28614;DHT22;15806;53.548;9.964;2022-09-20T11:12:48;16.50;99.90
28614;DHT22;15806;53.548;9.964;2022-09-20T11:14:34;16.60;99.90
28614;DHT22;15806;53.548;9.964;2022-09-20T11:16:41;16.80;99.90
28614;DHT22;15806;53.548;9.964;2022-09-20T11:18:38;16.90;99.90
28614;DHT22;15806;53.548;9.964;2022-09-20T11:20:36;16.60;99.90
28614;DHT22;15806;53.548;9.964;2022-09-20T11:24:29;16.40;99.90
28614;DHT22;15806;53.548;9.964;2022-09-20T11:26:37;18.20;99.90
28614;DHT22;15806;53.548;9.964;2022-09-20T11:30:13;17.70;99.90
28614;DHT22;15806;53.548;9.964;2022-09-20T11:32:19;17.60;99.90
28614;DHT22;15806;53.548;9.964;2022-09-20T11:36:05;20.70;99.90
28614;DHT22;15806;53.548;9.964;2022-09-20T11:39:52;25.00;90.40
28614;DHT22;15806;53.548;9.964;2022-09-20T11:41:34;26.80;58.30
28614;DHT22;15806;53.548;9.964;2022-09-20T11:43:15;27.50;18.20
28614;DHT22;15806;53.548;9.964;2022-09-20T11:44:57;26.90;2.70
28614;DHT22;15806;53.548;9.964;2022-09-20T11:46:53;27.30;1.00
28614;DHT22;15806;53.548;9.964;2022-09-20T11:48:40;28.00;1.00
28614;DHT22;15806;53.548;9.964;2022-09-20T11:50:49;27.50;1.00
28614;DHT22;15806;53.548;9.964;2022-09-20T11:56:38;27.70;1.00
28614;DHT22;15806;53.548;9.964;2022-09-20T11:58:18;26.80;1.00
28614;DHT22;15806;53.548;9.964;2022-09-20T12:00:01;27.00;1.00
28614;DHT22;15806;53.548;9.964;2022-09-20T12:01:42;27.10;1.00
28614;DHT22;15806;53.548;9.964;2022-09-20T12:07:19;28.20;1.00
28614;DHT22;15806;53.548;9.964;2022-09-20T12:09:06;28.60;1.00
28614;DHT22;15806;53.548;9.964;2022-09-20T12:11:03;27.70;1.00
28614;DHT22;15806;53.548;9.964;2022-09-20T12:12:46;28.10;1.00
28614;DHT22;15806;53.548;9.964;2022-09-20T12:14:30;28.20;1.00
28614;DHT22;15806;53.548;9.964;2022-09-20T12:16:16;28.60;1.00
28614;DHT22;15806;53.548;9.964;2022-09-20T12:25:38;23.60;1.00
28614;DHT22;15806;53.548;9.964;2022-09-20T12:33:02;18.60;95.00
28614;DHT22;15806;53.548;9.964;2022-09-20T12:34:43;18.10;99.90
28614;DHT22;15806;53.548;9.964;2022-09-20T12:36:28;18.00;99.90
28614;DHT22;15806;53.548;9.964;2022-09-20T12:39:59;17.40;99.90
28614;DHT22;15806;53.548;9.964;2022-09-20T12:44:04;20.20;99.90
28614;DHT22;15806;53.548;9.964;2022-09-20T12:45:52;22.10;87.10
28614;DHT22;15806;53.548;9.964;2022-09-20T12:47:36;22.90;51.00
28614;DHT22;15806;53.548;9.964;2022-09-20T12:51:16;25.00;12.00
28614;DHT22;15806;53.548;9.964;2022-09-20T12:52:57;26.30;1.00
28614;DHT22;15806;53.548;9.964;2022-09-20T12:54:52;27.10;1.00
28614;DHT22;15806;53.548;9.964;2022-09-20T12:56:35;27.30;1.00
28614;DHT22;15806;53.548;9.964;2022-09-20T13:00:32;24.20;1.00
28614;DHT22;15806;53.548;9.964;2022-09-20T13:02:40;22.50;10.00
28614;DHT22;15806;53.548;9.964;2022-09-20T13:04:51;20.60;62.80
28614;DHT22;15806;53.548;9.964;2022-09-20T13:06:31;19.70;93.00
28614;DHT22;15806;53.548;9.964;2022-09-20T13:08:16;19.00;99.90
28614;DHT22;15806;53.548;9.964;2022-09-20T13:10:01;18.50;99.90
28614;DHT22;15806;53.548;9.964;2022-09-20T13:11:54;18.10;99.90
28614;DHT22;15806;53.548;9.964;2022-09-20T13:15:26;17.00;99.90
28614;DHT22;15806;53.548;9.964;2022-09-20T13:17:21;16.80;99.90
28614;DHT22;15806;53.548;9.964;2022-09-20T13:20:47;16.50;99.90
28614;DHT22;15806;53.548;9.964;2022-09-20T13:22:36;16.40;99.90
28614;DHT22;15806;53.548;9.964;2022-09-20T13:24:18;16.30;99.90
28614;DHT22;15806;53.548;9.964;2022-09-20T13:25:59;16.30;99.90
28614;DHT22;15806;53.548;9.964;2022-09-20T13:27:46;16.30;99.90
28614;DHT22;15806;53.548;9.964;2022-09-20T13:33:22;16.20;99.90
28614;DHT22;15806;53.548;9.964;2022-09-20T13:36:53;16.30;99.90
28614;DHT22;15806;53.548;9.964;2022-09-20T13:38:35;16.30;99.90
28614;DHT22;15806;53.548;9.964;2022-09-20T13:40:17;16.50;99.90
28614;DHT22;15806;53.548;9.964;2022-09-20T13:42:00;16.60;99.90
28614;DHT22;15806;53.548;9.964;2022-09-20T13:43:43;16.70;99.90
28614;DHT22;15806;53.548;9.964;2022-09-20T13:45:24;16.70;99.90
28614;DHT22;15806;53.548;9.964;2022-09-20T13:47:29;16.80;99.90
28614;DHT22;15806;53.548;9.964;2022-09-20T13:49:17;16.80;99.90
28614;DHT22;15806;53.548;9.964;2022-09-20T13:50:58;16.80;99.90
28614;DHT22;15806;53.548;9.964;2022-09-20T13:52:47;16.80;99.90
28614;DHT22;15806;53.548;9.964;2022-09-20T13:54:30;16.70;99.90
28614;DHT22;15806;53.548;9.964;2022-09-20T13:56:24;16.60;99.90
28614;DHT22;15806;53.548;9.964;2022-09-20T13:58:14;16.50;99.90
28614;DHT22;15806;53.548;9.964;2022-09-20T14:00:00;16.40;99.90
28614;DHT22;15806;53.548;9.964;2022-09-20T14:01:47;16.20;99.90
28614;DHT22;15806;53.548;9.964;2022-09-20T14:03:29;16.20;99.90
28614;DHT22;15806;53.548;9.964;2022-09-20T14:05:15;16.10;99.90
28614;DHT22;15806;53.548;9.964;2022-09-20T14:06:58;16.00;99.90
28614;DHT22;15806;53.548;9.964;2022-09-20T14:08:48;15.90;99.90
28614;DHT22;15806;53.548;9.964;2022-09-20T14:10:37;16.00;99.90
28614;DHT22;15806;53.548;9.964;2022-09-20T14:12:18;15.90;99.90
28614;DHT22;15806;53.548;9.964;2022-09-20T14:14:00;15.90;99.90
28614;DHT22;15806;53.548;9.964;2022-09-20T14:15:44;15.90;99.90
28614;DHT22;15806;53.548;9.964;2022-09-20T14:17:29;15.90;99.90
28614;DHT22;15806;53.548;9.964;2022-09-20T14:19:17;15.90;99.90
28614;DHT22;15806;53.548;9.964;2022-09-20T14:20:58;15.90;99.90
28614;DHT22;15806;53.548;9.964;2022-09-20T14:22:39;15.80;99.90
28614;DHT22;15806;53.548;9.964;2022-09-20T14:24:42;15.80;99.90
28614;DHT22;15806;53.548;9.964;2022-09-20T14:26:37;15.90;99.90
28614;DHT22;15806;53.548;9.964;2022-09-20T14:28:18;15.90;99.90
28614;DHT22;15806;53.548;9.964;2022-09-20T14:29:59;15.90;99.90
28614;DHT22;15806;53.548;9.964;2022-09-20T14:31:44;15.90;99.90
28614;DHT22;15806;53.548;9.964;2022-09-20T14:33:27;15.90;99.90
28614;DHT22;15806;53.548;9.964;2022-09-20T14:37:26;16.00;99.90
28614;DHT22;15806;53.548;9.964;2022-09-20T14:39:13;16.00;99.90
28614;DHT22;15806;53.548;9.964;2022-09-20T14:40:54;16.00;99.90
28614;DHT22;15806;53.548;9.964;2022-09-20T14:42:54;15.90;99.90
28614;DHT22;15806;53.548;9.964;2022-09-20T14:44:35;15.90;99.90
28614;DHT22;15806;53.548;9.964;2022-09-20T14:46:16;15.90;99.90
28614;DHT22;15806;53.548;9.964;2022-09-20T14:48:04;15.90;99.90
28614;DHT22;15806;53.548;9.964;2022-09-20T14:49:45;15.90;99.90
28614;DHT22;15806;53.548;9.964;2022-09-20T14:51:26;15.80;99.90
28614;DHT22;15806;53.548;9.964;2022-09-20T14:56:49;15.70;99.90
28614;DHT22;15806;53.548;9.964;2022-09-20T14:58:31;15.70;99.90
28614;DHT22;15806;53.548;9.964;2022-09-20T15:00:14;15.70;99.90
28614;DHT22;15806;53.548;9.964;2022-09-20T15:03:41;15.60;99.90
28614;DHT22;15806;53.548;9.964;2022-09-20T15:05:26;15.70;99.90
28614;DHT22;15806;53.548;9.964;2022-09-20T15:07:09;15.60;99.90
28614;DHT22;15806;53.548;9.964;2022-09-20T15:08:49;15.60;99.90
28614;DHT22;15806;53.548;9.964;2022-09-20T15:10:31;15.70;99.90
28614;DHT22;15806;53.548;9.964;2022-09-20T15:12:14;15.70;99.90
28614;DHT22;15806;53.548;9.964;2022-09-20T15:13:55;15.80;99.90
28614;DHT22;15806;53.548;9.964;2022-09-20T15:15:36;15.80;99.90
28614;DHT22;15806;53.548;9.964;2022-09-20T15:17:19;15.80;99.90
28614;DHT22;15806;53.548;9.964;2022-09-20T15:18:59;15.80;99.90
28614;DHT22;15806;53.548;9.964;2022-09-20T15:20:40;15.80;99.90
28614;DHT22;15806;53.548;9.964;2022-09-20T15:22:20;15.80;99.90
28614;DHT22;15806;53.548;9.964;2022-09-20T15:24:01;15.80;99.90
28614;DHT22;15806;53.548;9.964;2022-09-20T15:25:41;15.70;99.90
28614;DHT22;15806;53.548;9.964;2022-09-20T15:27:22;15.70;99.90
28614;DHT22;15806;53.548;9.964;2022-09-20T15:29:03;15.60;99.90
28614;DHT22;15806;53.548;9.964;2022-09-20T15:30:44;15.60;99.90
28614;DHT22;15806;53.548;9.964;2022-09-20T15:32:25;15.70;99.90
28614;DHT22;15806;53.548;9.964;2022-09-20T15:34:05;15.70;99.90
28614;DHT22;15806;53.548;9.964;2022-09-20T15:35:47;15.70;99.90
28614;DHT22;15806;53.548;9.964;2022-09-20T15:37:27;15.80;99.90
28614;DHT22;15806;53.548;9.964;2022-09-20T15:39:08;15.80;99.90
28614;DHT22;15806;53.548;9.964;2022-09-20T15:40:48;15.70;99.90
28614;DHT22;15806;53.548;9.964;2022-09-20T15:42:29;15.70;99.90
28614;DHT22;15806;53.548;9.964;2022-09-20T15:44:09;15.70;99.90
28614;DHT22;15806;53.548;9.964;2022-09-20T15:45:52;15.80;99.90
28614;DHT22;15806;53.548;9.964;2022-09-20T15:47:39;15.70;99.90
28614;DHT22;15806;53.548;9.964;2022-09-20T15:49:20;15.70;99.90
28614;DHT22;15806;53.548;9.964;2022-09-20T15:51:05;15.70;99.90
28614;DHT22;15806;53.548;9.964;2022-09-20T15:52:46;15.70;99.90
28614;DHT22;15806;53.548;9.964;2022-09-20T15:54:27;15.60;99.90
28614;DHT22;15806;53.548;9.964;2022-09-20T15:56:20;15.60;99.90
28614;DHT22;15806;53.548;9.964;2022-09-20T15:58:01;15.60;99.90
28614;DHT22;15806;53.548;9.964;2022-09-20T15:59:41;15.50;99.90
28614;DHT22;15806;53.548;9.964;2022-09-20T16:01:22;15.50;99.90
28614;DHT22;15806;53.548;9.964;2022-09-20T16:03:02;15.60;99.90